Hammond, Oregon
Current Conditions -  °F | °C
As of 12:55 PM on Friday 19 Dec 2014 (Local Time) from KAST Reporting Station
Light Rain Light Rain  
Wind Chill: 45°   Ceiling: 4300
Heat Index: 49°   Visibility: 7mi
Dew Point: 44°   Wind: 9mph
Humidity: 83%   Direction: 150°SSE
Pressure: 29.94"   Gusts: NA
Location:  46.2°N, 123.95°W
Report Text: KAST 192055Z AUTO 15008KT 7SM -RA FEW033 BKN043 OVC100 09/07 A2994 RMK AO2 RAB21 SLP138 P0001 60001 T00940067 50003
Loading
Personal Weather Stations






























Interactive Weather Map New forecast layout! Learn more

10-Day Weather Forecast

Advertisements
Track Severe Weather on mobile